sensor_id;sensor_type;location;lat;lon;timestamp;pressure;altitude;pressure_sealevel;temperature;humidity
30338;BME280;17143;51.888;5.408;2023-08-24T00:01:14;101656.53;;;21.18;81.97
30338;BME280;17143;51.888;5.408;2023-08-24T00:16:16;101632.69;;;20.84;85.11
30338;BME280;17143;51.888;5.408;2023-08-24T00:31:19;101644.84;;;20.76;85.71
30338;BME280;17143;51.888;5.408;2023-08-24T00:46:21;101628.72;;;20.67;86.31
30338;BME280;17143;51.888;5.408;2023-08-24T01:01:23;101630.09;;;20.53;87.75
30338;BME280;17143;51.888;5.408;2023-08-24T01:16:28;101617.72;;;20.52;88.08
30338;BME280;17143;51.888;5.408;2023-08-24T01:31:31;101594.94;;;20.57;88.88
30338;BME280;17143;51.888;5.408;2023-08-24T01:46:33;101602.91;;;20.58;89.64
30338;BME280;17143;51.888;5.408;2023-08-24T02:01:36;101627.00;;;20.69;89.42
30338;BME280;17143;51.888;5.408;2023-08-24T02:16:38;101621.41;;;20.57;92.15
30338;BME280;17143;51.888;5.408;2023-08-24T02:31:40;101595.44;;;20.44;95.00
30338;BME280;17143;51.888;5.408;2023-08-24T02:46:44;101581.06;;;20.34;97.79
30338;BME280;17143;51.888;5.408;2023-08-24T03:01:46;101510.56;;;20.03;100.00
30338;BME280;17143;51.888;5.408;2023-08-24T03:16:48;101481.72;;;19.81;100.00
30338;BME280;17143;51.888;5.408;2023-08-24T03:31:50;101451.44;;;19.70;100.00
30338;BME280;17143;51.888;5.408;2023-08-24T03:46:52;101456.59;;;19.64;100.00
30338;BME280;17143;51.888;5.408;2023-08-24T04:01:54;101444.31;;;19.66;100.00
30338;BME280;17143;51.888;5.408;2023-08-24T04:16:56;101433.47;;;19.57;100.00
30338;BME280;17143;51.888;5.408;2023-08-24T04:31:58;101438.53;;;19.48;100.00
30338;BME280;17143;51.888;5.408;2023-08-24T04:47:00;101438.84;;;19.60;100.00
30338;BME280;17143;51.888;5.408;2023-08-24T05:02:02;101451.72;;;19.79;100.00
30338;BME280;17143;51.888;5.408;2023-08-24T05:17:04;101450.63;;;20.05;100.00
30338;BME280;17143;51.888;5.408;2023-08-24T05:32:06;101445.84;;;20.24;100.00
30338;BME280;17143;51.888;5.408;2023-08-24T05:47:08;101420.59;;;20.75;100.00
30338;BME280;17143;51.888;5.408;2023-08-24T06:02:10;101393.97;;;22.61;95.92
30338;BME280;17143;51.888;5.408;2023-08-24T06:17:12;101378.53;;;23.75;89.35
30338;BME280;17143;51.888;5.408;2023-08-24T06:32:14;101380.25;;;24.85;82.95
30338;BME280;17143;51.888;5.408;2023-08-24T06:47:17;101361.81;;;25.63;78.79
30338;BME280;17143;51.888;5.408;2023-08-24T07:02:19;101375.19;;;26.36;73.24
30338;BME280;17143;51.888;5.408;2023-08-24T07:17:21;101325.75;;;27.37;70.91
30338;BME280;17143;51.888;5.408;2023-08-24T07:32:23;101343.38;;;27.69;68.97
30338;BME280;17143;51.888;5.408;2023-08-24T07:47:25;101344.22;;;29.37;61.38
30338;BME280;17143;51.888;5.408;2023-08-24T08:02:27;101361.56;;;29.11;61.22
30338;BME280;17143;51.888;5.408;2023-08-24T08:17:29;101340.59;;;28.74;63.74
30338;BME280;17143;51.888;5.408;2023-08-24T08:32:31;101331.50;;;28.05;67.07
30338;BME280;17143;51.888;5.408;2023-08-24T08:47:33;101296.03;;;27.73;66.81
30338;BME280;17143;51.888;5.408;2023-08-24T09:02:35;101253.44;;;28.34;64.68
30338;BME280;17143;51.888;5.408;2023-08-24T09:17:42;101222.13;;;28.37;63.35
30338;BME280;17143;51.888;5.408;2023-08-24T09:32:44;101193.06;;;28.73;62.90
30338;BME280;17143;51.888;5.408;2023-08-24T09:47:49;101190.00;;;28.34;64.11
30338;BME280;17143;51.888;5.408;2023-08-24T10:02:52;101232.81;;;27.54;67.76
30338;BME280;17143;51.888;5.408;2023-08-24T10:17:55;101255.47;;;27.10;69.44
30338;BME280;17143;51.888;5.408;2023-08-24T10:32:58;101231.28;;;27.19;71.32
30338;BME280;17143;51.888;5.408;2023-08-24T10:48:01;101217.75;;;27.44;72.34
30338;BME280;17143;51.888;5.408;2023-08-24T11:03:03;101200.53;;;27.70;73.90
30338;BME280;17143;51.888;5.408;2023-08-24T11:18:29;101173.00;;;27.58;73.32
30338;BME280;17143;51.888;5.408;2023-08-24T11:33:33;101145.50;;;27.41;72.99
30338;BME280;17143;51.888;5.408;2023-08-24T11:48:35;101124.88;;;27.52;74.24
30338;BME280;17143;51.888;5.408;2023-08-24T12:03:37;101095.31;;;27.62;74.58
30338;BME280;17143;51.888;5.408;2023-08-24T12:18:49;101070.53;;;28.15;74.28
30338;BME280;17143;51.888;5.408;2023-08-24T12:34:03;101043.97;;;27.97;72.21
30338;BME280;17143;51.888;5.408;2023-08-24T12:49:05;100988.31;;;28.17;72.33
30338;BME280;17143;51.888;5.408;2023-08-24T13:04:07;101015.13;;;28.74;72.84
30338;BME280;17143;51.888;5.408;2023-08-24T13:19:09;101040.28;;;29.16;70.85
30338;BME280;17143;51.888;5.408;2023-08-24T13:34:11;101043.31;;;28.99;69.99
30338;BME280;17143;51.888;5.408;2023-08-24T13:49:13;101031.38;;;28.65;71.33
30338;BME280;17143;51.888;5.408;2023-08-24T14:04:15;101017.41;;;28.42;72.62
30338;BME280;17143;51.888;5.408;2023-08-24T14:19:17;101009.59;;;28.29;73.15
30338;BME280;17143;51.888;5.408;2023-08-24T14:34:19;101004.47;;;28.14;74.03
30338;BME280;17143;51.888;5.408;2023-08-24T14:49:21;100983.75;;;28.24;74.01
30338;BME280;17143;51.888;5.408;2023-08-24T15:04:23;100964.69;;;27.84;75.38
30338;BME280;17143;51.888;5.408;2023-08-24T15:19:25;100948.13;;;27.58;75.93
30338;BME280;17143;51.888;5.408;2023-08-24T15:34:27;100948.44;;;27.32;73.48
30338;BME280;17143;51.888;5.408;2023-08-24T15:49:29;100921.66;;;27.31;73.21
30338;BME280;17143;51.888;5.408;2023-08-24T16:04:31;100899.97;;;27.55;71.98
30338;BME280;17143;51.888;5.408;2023-08-24T16:19:33;100907.50;;;27.24;72.97
30338;BME280;17143;51.888;5.408;2023-08-24T16:34:35;100916.72;;;27.00;74.92
30338;BME280;17143;51.888;5.408;2023-08-24T16:49:37;100889.09;;;26.97;75.81
30338;BME280;17143;51.888;5.408;2023-08-24T17:04:39;100881.78;;;27.12;75.46
30338;BME280;17143;51.888;5.408;2023-08-24T17:19:41;100874.09;;;26.85;76.19
30338;BME280;17143;51.888;5.408;2023-08-24T17:34:43;100847.47;;;26.73;77.53
30338;BME280;17143;51.888;5.408;2023-08-24T17:49:45;100819.09;;;26.60;77.56
30338;BME280;17143;51.888;5.408;2023-08-24T18:04:47;100817.50;;;26.44;78.53
30338;BME280;17143;51.888;5.408;2023-08-24T18:19:49;100811.41;;;26.30;79.43
30338;BME280;17143;51.888;5.408;2023-08-24T18:34:51;100835.72;;;26.02;79.74
30338;BME280;17143;51.888;5.408;2023-08-24T18:49:54;100804.75;;;25.80;80.84
30338;BME280;17143;51.888;5.408;2023-08-24T19:04:56;100827.22;;;25.52;82.51
30338;BME280;17143;51.888;5.408;2023-08-24T19:19:58;100813.97;;;25.29;84.15
30338;BME280;17143;51.888;5.408;2023-08-24T19:35:00;100791.75;;;25.26;85.20
30338;BME280;17143;51.888;5.408;2023-08-24T19:50:02;100783.81;;;25.20;87.68
30338;BME280;17143;51.888;5.408;2023-08-24T20:05:05;100787.50;;;24.98;89.10
30338;BME280;17143;51.888;5.408;2023-08-24T20:20:08;100755.59;;;24.70;90.71
30338;BME280;17143;51.888;5.408;2023-08-24T20:35:10;100772.56;;;24.54;92.18
30338;BME280;17143;51.888;5.408;2023-08-24T20:50:12;100790.38;;;24.31;93.67
30338;BME280;17143;51.888;5.408;2023-08-24T21:05:14;100908.41;;;23.94;97.68
30338;BME280;17143;51.888;5.408;2023-08-24T21:20:16;100869.41;;;23.82;99.38
30338;BME280;17143;51.888;5.408;2023-08-24T21:35:18;100754.97;;;23.66;100.00
30338;BME280;17143;51.888;5.408;2023-08-24T21:50:20;100687.56;;;23.30;100.00
30338;BME280;17143;51.888;5.408;2023-08-24T22:05:22;100684.94;;;23.14;100.00
30338;BME280;17143;51.888;5.408;2023-08-24T22:20:24;100724.75;;;22.94;100.00
30338;BME280;17143;51.888;5.408;2023-08-24T22:35:28;100799.09;;;22.85;100.00
30338;BME280;17143;51.888;5.408;2023-08-24T22:50:30;100792.88;;;22.71;100.00
30338;BME280;17143;51.888;5.408;2023-08-24T23:05:32;100808.81;;;22.75;100.00
30338;BME280;17143;51.888;5.408;2023-08-24T23:20:34;100792.00;;;22.82;100.00
30338;BME280;17143;51.888;5.408;2023-08-24T23:35:36;100783.06;;;22.61;100.00
30338;BME280;17143;51.888;5.408;2023-08-24T23:50:38;100760.00;;;22.57;100.00
